Time;durP1;ratioP1;P1;durP2;ratioP2;P2;SDS_P1;SDS_P2;PMS_P1;PMS_P2;Temp;Humidity;BMP_temperature;BMP_pressure;BME280_temperature;BME280_humidity;BME280_pressure;Samples;Min_cycle;Max_cycle;Signal;HPM_P1;HPM_P2
2023/06/05 00:00:54;;;;;;;11.60;4.45;;;;;;;-146.25;100.00;52080.28;2079701;28;35708;-70
2023/06/05 00:01:56;;;;;;;10.30;4.43;;;;;;;-146.25;100.00;52092.44;2080049;28;20049;-70
2023/06/05 00:02:58;;;;;;;7.07;3.28;;;;;;;-146.25;100.00;52106.66;2079566;28;35920;-70
2023/06/05 00:04:03;;;;;;;6.07;3.45;;;;;;;-146.25;100.00;52112.72;2079387;28;37529;-70
2023/06/05 00:05:08;;;;;;;8.35;3.78;;;;;;;-146.25;100.00;52096.50;2079780;28;33350;-71
2023/06/05 00:06:10;;;;;;;6.97;3.53;;;;;;;-146.25;100.00;52078.25;2079572;28;36810;-70
2023/06/05 00:07:12;;;;;;;9.77;3.45;;;;;;;-146.25;100.00;52104.63;2079810;28;37586;-70
2023/06/05 00:08:14;;;;;;;7.43;3.70;;;;;;;-146.25;100.00;52120.84;2079454;28;36280;-70
2023/06/05 00:09:17;;;;;;;8.98;3.78;;;;;;;-146.25;100.00;52124.91;2080028;28;20046;-70
2023/06/05 00:10:20;;;;;;;5.53;3.22;;;;;;;-146.25;100.00;52106.66;2080192;28;20034;-70
2023/06/05 00:11:22;;;;;;;11.65;3.92;;;;;;;-146.25;100.00;52098.53;2079620;28;34385;-70
2023/06/05 00:12:25;;;;;;;8.80;3.88;;;;;;;-146.25;100.00;52114.75;2079394;28;34363;-70
2023/06/05 00:13:26;;;;;;;11.88;4.05;;;;;;;-146.25;100.00;52130.97;2079457;28;38130;-71
2023/06/05 00:14:28;;;;;;;7.60;3.35;;;;;;;-146.25;100.00;52118.81;2079334;28;38242;-71
2023/06/05 00:15:35;;;;;;;8.85;4.10;;;;;;;-146.25;100.00;52088.41;2080128;28;20034;-71
2023/06/05 00:16:37;;;;;;;9.85;3.80;;;;;;;-146.25;100.00;52066.09;2079365;28;39097;-71
2023/06/05 00:17:39;;;;;;;6.70;3.78;;;;;;;-146.25;100.00;52137.06;2080495;28;20538;-69
2023/06/05 00:18:42;;;;;;;7.72;3.90;;;;;;;-146.25;100.00;52092.44;2079224;28;38738;-69
2023/06/05 00:19:46;;;;;;;6.65;3.60;;;;;;;-146.25;100.00;52116.78;2079295;28;39820;-71
2023/06/05 00:20:49;;;;;;;7.82;3.45;;;;;;;-146.25;100.00;52096.50;2079939;28;20057;-71
2023/06/05 00:21:52;;;;;;;7.20;3.47;;;;;;;-146.25;100.00;52076.22;2079520;28;35904;-70
2023/06/05 00:22:54;;;;;;;6.95;3.60;;;;;;;-146.25;100.00;52104.63;2079087;28;35832;-71
2023/06/05 00:23:56;;;;;;;10.95;4.07;;;;;;;-146.25;100.00;52137.06;2079407;28;32191;-70
2023/06/05 00:24:58;;;;;;;9.90;4.22;;;;;;;-146.25;100.00;52112.72;2079743;28;34625;-69
2023/06/05 00:26:00;;;;;;;11.50;4.03;;;;;;;-146.25;100.00;52096.50;2080102;28;20091;-68
2023/06/05 00:27:02;;;;;;;7.32;3.90;;;;;;;-146.25;100.00;52128.94;2079644;28;32634;-71
2023/06/05 00:28:03;;;;;;;9.07;4.07;;;;;;;-146.25;100.00;52086.38;2079686;28;33441;-70
2023/06/05 00:29:05;;;;;;;7.50;3.97;;;;;;;-146.25;100.00;52126.91;2080360;28;25580;-70
2023/06/05 00:30:12;;;;;;;7.65;4.00;;;;;;;-146.25;100.00;52108.66;2081608;28;20061;-69
2023/06/05 00:31:15;;;;;;;12.20;4.90;;;;;;;-146.25;100.00;52084.34;2081306;28;20885;-69
2023/06/05 00:32:19;;;;;;;8.40;4.03;;;;;;;-146.25;100.00;52072.19;2080289;28;27067;-71
2023/06/05 00:33:23;;;;;;;10.70;4.53;;;;;;;-146.25;100.00;52096.50;2080040;28;32905;-70
2023/06/05 00:34:25;;;;;;;8.35;4.65;;;;;;;-146.25;100.00;52112.72;2088629;28;25150;-71
2023/06/05 00:35:27;;;;;;;7.43;3.75;;;;;;;-146.25;100.00;52120.84;2080810;28;28115;-69
2023/06/05 00:36:29;;;;;;;12.10;4.70;;;;;;;-146.25;100.00;52133.00;2081636;28;20826;-72
2023/06/05 00:37:31;;;;;;;11.43;4.50;;;;;;;-146.25;100.00;52133.00;2081413;28;20089;-71
2023/06/05 00:38:33;;;;;;;8.30;4.32;;;;;;;-146.25;100.00;52120.84;2081642;28;20220;-71
2023/06/05 00:39:35;;;;;;;7.93;3.80;;;;;;;-146.25;100.00;52116.78;2080519;28;20048;-71
2023/06/05 00:40:37;;;;;;;6.05;4.22;;;;;;;-146.25;100.00;52090.44;2080227;28;30831;-71
2023/06/05 00:41:41;;;;;;;8.68;3.85;;;;;;;-146.25;100.00;52098.53;2079841;28;25597;-70
2023/06/05 00:42:43;;;;;;;6.35;3.55;;;;;;;-146.25;100.00;52114.75;2080507;28;25834;-71
2023/06/05 00:43:45;;;;;;;10.43;3.83;;;;;;;-146.25;100.00;52137.06;2080363;28;38761;-71
2023/06/05 00:44:48;;;;;;;9.68;4.38;;;;;;;-146.25;100.00;52106.66;2081643;28;29507;-69
2023/06/05 00:45:58;;;;;;;9.73;4.55;;;;;;;-146.25;100.00;52124.91;2081426;28;20061;-71
2023/06/05 00:47:03;;;;;;;10.45;5.07;;;;;;;-146.25;100.00;52096.50;2088985;28;30954;-71
2023/06/05 00:48:07;;;;;;;7.05;4.28;;;;;;;-146.25;100.00;52112.72;2087337;28;20143;-70
2023/06/05 00:49:10;;;;;;;11.23;5.00;;;;;;;-146.25;100.00;52090.44;2080237;28;37212;-71
2023/06/05 00:50:12;;;;;;;9.32;4.70;;;;;;;-146.25;100.00;52098.53;2080647;28;31209;-71
2023/06/05 00:51:15;;;;;;;11.10;5.35;;;;;;;-146.25;100.00;52092.44;2081555;28;20034;-70
2023/06/05 00:52:17;;;;;;;9.68;4.55;;;;;;;-146.25;100.00;52100.56;2080710;28;33906;-70
2023/06/05 00:53:20;;;;;;;10.77;4.30;;;;;;;-146.25;100.00;52163.41;2081094;28;28538;-71
2023/06/05 00:54:22;;;;;;;9.48;4.68;;;;;;;-146.25;100.00;52116.78;2079568;28;24737;-70
2023/06/05 00:55:26;;;;;;;8.98;3.97;;;;;;;-146.25;100.00;52114.75;2072643;28;20154;-71
2023/06/05 00:56:28;;;;;;;8.88;4.35;;;;;;;-146.25;100.00;52100.56;2072972;28;20858;-71
2023/06/05 00:57:34;;;;;;;12.77;5.00;;;;;;;-146.25;100.00;52133.00;2081074;28;20076;-71
2023/06/05 00:58:36;;;;;;;9.10;4.68;;;;;;;-146.25;100.00;52137.06;2080271;28;33690;-71
2023/06/05 00:59:40;;;;;;;10.15;4.50;;;;;;;-146.25;100.00;52104.63;2080376;28;26466;-71
2023/06/05 01:00:42;;;;;;;9.27;4.47;;;;;;;-146.25;100.00;52092.44;2072300;28;30252;-71
2023/06/05 01:01:45;;;;;;;13.45;5.15;;;;;;;-146.25;100.00;52088.41;2081435;28;20854;-71
2023/06/05 01:02:53;;;;;;;9.60;4.80;;;;;;;-146.25;100.00;52118.81;2079655;28;34772;-71
2023/06/05 01:03:58;;;;;;;7.80;4.25;;;;;;;-146.25;100.00;52092.44;2081682;28;20069;-71
2023/06/05 01:05:00;;;;;;;8.25;4.35;;;;;;;-146.25;100.00;52104.63;2087752;28;32971;-70
2023/06/05 01:06:05;;;;;;;6.25;4.38;;;;;;;-146.25;100.00;52122.88;2080103;28;25477;-71
2023/06/05 01:07:08;;;;;;;8.68;3.90;;;;;;;-146.25;100.00;52100.56;2073086;28;20085;-71
2023/06/05 01:08:12;;;;;;;4.90;3.75;;;;;;;-146.25;100.00;52110.69;2080451;28;24825;-71
2023/06/05 01:09:14;;;;;;;8.73;4.53;;;;;;;-146.25;100.00;52106.66;2088493;28;25163;-71
2023/06/05 01:10:16;;;;;;;10.98;4.70;;;;;;;-146.25;100.00;52157.34;2087923;28;23517;-71
2023/06/05 01:11:30;;;;;;;8.45;4.85;;;;;;;-146.25;100.00;52126.91;2080737;28;29518;-71
2023/06/05 01:13:00;;;;;;;9.40;4.57;;;;;;;-146.25;100.00;52102.59;2089210;28;20041;-71
2023/06/05 01:14:30;;;;;;;8.65;4.07;;;;;;;-146.25;100.00;52128.94;2084077;28;28931;-71
2023/06/05 01:15:36;;;;;;;9.85;4.38;;;;;;;-146.25;100.00;52114.75;2076675;28;20859;-71
2023/06/05 01:16:39;;;;;;;8.52;4.43;;;;;;;-146.25;100.00;52106.66;2080370;28;30804;-71
2023/06/05 01:17:47;;;;;;;9.38;4.68;;;;;;;-146.25;100.00;52122.88;2080843;28;26738;-71
2023/06/05 01:18:48;;;;;;;7.20;4.63;;;;;;;-146.25;100.00;52100.56;2080145;28;33157;-71
2023/06/05 01:19:52;;;;;;;7.82;5.15;;;;;;;-146.25;100.00;52135.03;2080098;28;27998;-70
2023/06/05 01:20:59;;;;;;;10.52;5.20;;;;;;;-146.25;100.00;52133.00;2081057;28;25388;-71
2023/06/05 01:22:01;;;;;;;9.52;5.78;;;;;;;-146.25;100.00;52133.00;2080852;28;31808;-72
2023/06/05 01:23:07;;;;;;;8.70;4.80;;;;;;;-146.25;100.00;52104.63;2080586;28;36528;-70
2023/06/05 01:24:09;;;;;;;14.30;6.50;;;;;;;-146.25;100.00;52092.44;2088520;28;32139;-71
2023/06/05 01:25:11;;;;;;;14.20;5.88;;;;;;;-146.25;100.00;52135.03;2087743;28;34444;-71
2023/06/05 01:26:26;;;;;;;15.30;6.43;;;;;;;-146.25;100.00;52092.44;2079916;28;35153;-70
2023/06/05 01:27:39;;;;;;;15.35;5.65;;;;;;;-146.25;100.00;52096.50;2080737;28;23928;-70
2023/06/05 01:28:46;;;;;;;10.93;5.40;;;;;;;-146.25;100.00;52114.75;2088532;28;28311;-70
2023/06/05 01:30:02;;;;;;;9.77;5.00;;;;;;;-146.25;100.00;52100.56;2080407;28;20049;-70
2023/06/05 01:31:15;;;;;;;9.52;5.65;;;;;;;-146.25;100.00;52096.50;2082872;28;20063;-71
2023/06/05 01:32:40;;;;;;;8.60;6.15;;;;;;;-146.25;100.00;52110.69;2088603;28;20041;-71
2023/06/05 01:34:02;;;;;;;10.85;6.15;;;;;;;-146.25;100.00;52147.19;2084821;28;27920;-70
2023/06/05 01:35:10;;;;;;;13.65;6.03;;;;;;;-146.25;100.00;52106.66;2076904;28;35926;-71
2023/06/05 01:36:13;;;;;;;8.98;5.70;;;;;;;-146.25;100.00;52088.41;2080299;28;20042;-71
2023/06/05 01:37:18;;;;;;;10.15;5.65;;;;;;;-146.25;100.00;52126.91;2079896;28;29067;-70
2023/06/05 01:38:21;;;;;;;12.80;6.13;;;;;;;-146.25;100.00;52086.38;2080211;28;20322;-71
2023/06/05 01:39:25;;;;;;;10.50;6.65;;;;;;;-146.25;100.00;52092.44;2065057;28;20181;-71
2023/06/05 01:40:27;;;;;;;10.73;6.13;;;;;;;-146.25;100.00;52108.66;2072306;28;20039;-71
2023/06/05 01:41:29;;;;;;;11.18;6.82;;;;;;;-146.25;100.00;52124.91;2064359;28;25181;-70
2023/06/05 01:42:32;;;;;;;9.85;5.95;;;;;;;-146.25;100.00;52116.78;2072143;28;20970;-71
2023/06/05 01:43:35;;;;;;;17.00;6.65;;;;;;;-146.25;100.00;52128.94;2080367;28;20045;-71
2023/06/05 01:44:41;;;;;;;12.75;6.43;;;;;;;-146.25;100.00;52084.34;2064849;28;20049;-71
2023/06/05 01:45:44;;;;;;;9.90;6.50;;;;;;;-146.25;100.00;52096.50;2065614;28;20039;-71
2023/06/05 01:46:46;;;;;;;11.55;6.68;;;;;;;-146.25;100.00;52135.03;2079761;28;29489;-71
2023/06/05 01:47:49;;;;;;;9.18;5.70;;;;;;;-146.25;100.00;52112.72;2080704;28;34281;-70
2023/06/05 01:48:52;;;;;;;13.15;6.88;;;;;;;-146.25;100.00;52100.56;2080525;28;25814;-71
2023/06/05 01:49:55;;;;;;;12.10;6.53;;;;;;;-146.25;100.00;52072.19;2079825;28;34347;-70
2023/06/05 01:50:58;;;;;;;11.63;6.35;;;;;;;-146.25;100.00;52102.59;2079953;28;24113;-71
2023/06/05 01:52:00;;;;;;;9.82;5.85;;;;;;;-146.25;100.00;52096.50;2080295;28;24613;-71
2023/06/05 01:53:03;;;;;;;12.35;6.65;;;;;;;-146.25;100.00;52088.41;2080186;28;20074;-71
2023/06/05 01:54:07;;;;;;;7.95;6.22;;;;;;;-146.25;100.00;52137.06;2080470;28;20034;-70
2023/06/05 01:55:14;;;;;;;11.20;5.85;;;;;;;-146.25;100.00;52137.06;2080336;28;20123;-70
2023/06/05 01:56:19;;;;;;;12.82;6.95;;;;;;;-146.25;100.00;52100.56;2079774;28;26433;-71
2023/06/05 01:57:21;;;;;;;10.50;6.93;;;;;;;-146.25;100.00;52092.44;2079839;28;20173;-70
2023/06/05 01:58:25;;;;;;;12.10;6.65;;;;;;;-146.25;100.00;52090.44;2080422;28;20131;-70
2023/06/05 01:59:27;;;;;;;10.80;6.28;;;;;;;-146.25;100.00;52088.41;2071732;28;20042;-70
2023/06/05 02:00:28;;;;;;;12.50;5.93;;;;;;;-146.25;100.00;52120.84;2068982;28;20058;-70
2023/06/05 02:01:30;;;;;;;14.10;7.00;;;;;;;-146.25;100.00;52092.44;2079638;28;36150;-71
2023/06/05 02:02:32;;;;;;;9.90;5.82;;;;;;;-146.25;100.00;52112.72;2080633;28;20045;-71
2023/06/05 02:03:35;;;;;;;14.88;6.80;;;;;;;-146.25;100.00;52112.72;2080051;28;29052;-69
2023/06/05 02:04:37;;;;;;;10.10;6.50;;;;;;;-146.25;100.00;52157.34;2079351;28;23771;-70
2023/06/05 02:05:42;;;;;;;12.32;6.47;;;;;;;-146.25;100.00;52090.44;2080156;28;20211;-70
2023/06/05 02:06:45;;;;;;;10.90;6.57;;;;;;;-146.25;100.00;52143.13;2079808;28;23103;-70
2023/06/05 02:07:53;;;;;;;13.63;7.10;;;;;;;-146.25;100.00;52126.91;2071723;28;20042;-70
2023/06/05 02:08:57;;;;;;;12.52;6.85;;;;;;;-146.25;100.00;52086.38;2079933;28;20467;-71
2023/06/05 02:10:02;;;;;;;11.68;6.22;;;;;;;-146.25;100.00;52074.22;2079684;28;20899;-71
2023/06/05 02:11:10;;;;;;;12.25;6.32;;;;;;;-146.25;100.00;52137.06;2063912;28;20107;-70
2023/06/05 02:12:15;;;;;;;11.13;6.70;;;;;;;-146.25;100.00;52149.22;2073083;28;28766;-69
2023/06/05 02:13:18;;;;;;;11.32;6.60;;;;;;;-146.25;100.00;52100.56;2080146;28;30825;-69
2023/06/05 02:14:22;;;;;;;9.30;6.60;;;;;;;-146.25;100.00;52116.78;2088156;28;29908;-70
2023/06/05 02:15:24;;;;;;;11.77;6.78;;;;;;;-146.25;100.00;52114.75;2087884;28;20134;-70
2023/06/05 02:16:28;;;;;;;11.98;6.80;;;;;;;-146.25;100.00;52106.66;2071931;28;20046;-71
2023/06/05 02:17:30;;;;;;;11.85;6.43;;;;;;;-146.25;100.00;52161.38;2080381;28;20131;-71
2023/06/05 02:18:32;;;;;;;12.10;6.47;;;;;;;-146.25;100.00;52108.66;2080649;28;20908;-71
2023/06/05 02:19:37;;;;;;;10.18;6.57;;;;;;;-146.25;100.00;52120.84;2080539;28;20056;-71
2023/06/05 02:20:42;;;;;;;15.30;7.25;;;;;;;-146.25;100.00;52153.28;2079810;28;30834;-71
2023/06/05 02:21:44;;;;;;;11.75;7.10;;;;;;;-146.25;100.00;52133.00;2080030;28;20046;-69
2023/06/05 02:22:49;;;;;;;9.85;6.50;;;;;;;-146.25;100.00;52153.28;2080483;28;23148;-71
2023/06/05 02:23:53;;;;;;;15.77;8.20;;;;;;;-146.25;100.00;52100.56;2080146;28;28104;-71
2023/06/05 02:24:55;;;;;;;14.43;8.82;;;;;;;-146.25;100.00;52104.63;2079924;28;27765;-71
2023/06/05 02:25:57;;;;;;;25.20;8.52;;;;;;;-146.25;100.00;52124.91;2079782;28;20046;-71
2023/06/05 02:26:59;;;;;;;16.20;7.95;;;;;;;-146.25;100.00;52130.97;2087833;28;35096;-71
2023/06/05 02:28:02;;;;;;;10.63;6.90;;;;;;;-146.25;100.00;52076.22;2079375;28;20969;-71
2023/06/05 02:29:05;;;;;;;14.27;7.20;;;;;;;-146.25;100.00;52108.66;2080137;28;25826;-72
2023/06/05 02:30:08;;;;;;;10.68;6.80;;;;;;;-146.25;100.00;52106.66;2079414;28;32681;-71
2023/06/05 02:31:15;;;;;;;12.15;7.32;;;;;;;-146.25;100.00;52128.94;2064006;28;20031;-72
2023/06/05 02:32:20;;;;;;;10.65;6.60;;;;;;;-146.25;100.00;52137.06;2065652;28;20050;-69
2023/06/05 02:33:23;;;;;;;8.55;6.57;;;;;;;-146.25;100.00;52128.94;2072095;28;20038;-72
2023/06/05 02:34:25;;;;;;;11.18;7.13;;;;;;;-146.25;100.00;52106.66;2079948;28;20144;-72
2023/06/05 02:35:27;;;;;;;8.75;6.22;;;;;;;-146.25;100.00;52143.13;2088462;28;20057;-71
2023/06/05 02:36:32;;;;;;;15.25;6.95;;;;;;;-146.25;100.00;52100.56;2087678;28;28839;-69
2023/06/05 02:37:37;;;;;;;16.83;7.22;;;;;;;-146.25;100.00;52130.97;2088295;28;20073;-71
2023/06/05 02:38:40;;;;;;;11.48;7.07;;;;;;;-146.25;100.00;52161.38;2079980;28;20054;-72
2023/06/05 02:39:42;;;;;;;12.20;7.35;;;;;;;-146.25;100.00;52084.34;2080448;28;20038;-71
2023/06/05 02:40:44;;;;;;;12.55;8.00;;;;;;;-146.25;100.00;52084.34;2079679;28;20046;-71
2023/06/05 02:41:48;;;;;;;13.25;7.80;;;;;;;-146.25;100.00;52104.63;2080026;28;20080;-70
2023/06/05 02:42:50;;;;;;;11.77;7.25;;;;;;;-146.25;100.00;52104.63;2087731;28;20042;-71
2023/06/05 02:43:55;;;;;;;12.70;7.15;;;;;;;-146.25;100.00;52114.75;2088079;28;20095;-70
2023/06/05 02:44:57;;;;;;;11.00;6.90;;;;;;;-146.25;100.00;52153.28;2079663;28;20120;-70
2023/06/05 02:45:59;;;;;;;10.70;6.95;;;;;;;-146.25;100.00;52108.66;2079755;28;20896;-70
2023/06/05 02:47:01;;;;;;;12.00;7.10;;;;;;;-146.25;100.00;52102.59;2079309;28;20135;-72
2023/06/05 02:48:03;;;;;;;15.55;7.47;;;;;;;-146.25;100.00;52116.78;2079897;28;20038;-70
2023/06/05 02:49:07;;;;;;;13.45;7.15;;;;;;;-146.25;100.00;52169.50;2079610;28;20180;-71
2023/06/05 02:50:10;;;;;;;10.27;7.30;;;;;;;-146.25;100.00;52120.84;2080055;28;20946;-70
2023/06/05 02:51:15;;;;;;;9.13;6.88;;;;;;;-146.25;100.00;52120.84;2079594;28;20192;-69
2023/06/05 02:52:20;;;;;;;11.43;7.18;;;;;;;-146.25;100.00;52137.06;2079729;28;20038;-71
2023/06/05 02:53:23;;;;;;;11.57;6.55;;;;;;;-146.25;100.00;52149.22;2071118;28;20043;-72
2023/06/05 02:54:28;;;;;;;11.20;6.50;;;;;;;-146.25;100.00;52130.97;2071851;28;20069;-72
2023/06/05 02:55:32;;;;;;;11.65;7.00;;;;;;;-146.25;100.00;52141.13;2071250;28;20058;-71
2023/06/05 02:56:43;;;;;;;14.48;7.00;;;;;;;-146.25;100.00;52110.69;2071842;28;20113;-71
2023/06/05 02:57:48;;;;;;;12.50;7.03;;;;;;;-146.25;100.00;52128.94;2072405;28;20046;-71
2023/06/05 02:58:56;;;;;;;11.45;7.15;;;;;;;-146.25;100.00;52110.69;2079892;28;20569;-71
2023/06/05 03:00:07;;;;;;;11.15;6.75;;;;;;;-146.25;100.00;52114.75;2063422;28;20128;-71
2023/06/05 03:01:12;;;;;;;13.10;7.18;;;;;;;-146.25;100.00;52092.44;2057410;28;20105;-70
2023/06/05 03:02:20;;;;;;;10.68;6.40;;;;;;;-146.25;100.00;52104.63;2058865;28;20933;-71
2023/06/05 03:03:26;;;;;;;10.27;6.43;;;;;;;-146.25;100.00;52120.84;2078983;28;24372;-71
2023/06/05 03:04:29;;;;;;;13.45;7.50;;;;;;;-146.25;100.00;52153.28;2072254;28;20200;-70
2023/06/05 03:05:31;;;;;;;12.73;6.80;;;;;;;-146.25;100.00;52114.75;2071305;28;20934;-71
2023/06/05 03:06:43;;;;;;;10.52;7.13;;;;;;;-146.25;100.00;52120.84;2071984;28;20144;-69
2023/06/05 03:07:45;;;;;;;13.55;7.82;;;;;;;-146.25;100.00;52149.22;2071982;28;20054;-71
2023/06/05 03:08:47;;;;;;;9.82;6.75;;;;;;;-146.25;100.00;52124.91;2071703;28;20041;-71
2023/06/05 03:09:55;;;;;;;9.00;6.97;;;;;;;-146.25;100.00;52086.38;2072151;28;20413;-71
2023/06/05 03:10:57;;;;;;;11.10;7.20;;;;;;;-146.25;100.00;52157.34;2071567;28;20795;-71
2023/06/05 03:11:59;;;;;;;15.68;7.15;;;;;;;-146.25;100.00;52090.44;2071441;28;21061;-71
2023/06/05 03:13:03;;;;;;;13.25;6.72;;;;;;;-146.25;100.00;52106.66;2071710;28;20051;-71
2023/06/05 03:14:07;;;;;;;11.95;7.60;;;;;;;-146.25;100.00;52137.06;2071538;28;20042;-71
2023/06/05 03:15:10;;;;;;;10.13;6.70;;;;;;;-146.25;100.00;52149.22;2079586;28;20459;-71
2023/06/05 03:16:13;;;;;;;12.88;6.78;;;;;;;-146.25;100.00;52114.75;2063500;28;20849;-71
2023/06/05 03:17:24;;;;;;;12.50;8.23;;;;;;;-146.25;100.00;52120.84;2072235;28;20049;-71
2023/06/05 03:18:26;;;;;;;14.18;7.80;;;;;;;-146.25;100.00;52141.13;2079220;28;20120;-71
2023/06/05 03:19:31;;;;;;;11.10;7.35;;;;;;;-146.25;100.00;52080.28;2063411;28;20173;-70
2023/06/05 03:20:38;;;;;;;11.48;6.75;;;;;;;-146.25;100.00;52118.81;2064580;28;20055;-71
2023/06/05 03:21:41;;;;;;;10.77;6.75;;;;;;;-146.25;100.00;52126.91;2071461;28;20098;-71
2023/06/05 03:22:44;;;;;;;11.82;7.18;;;;;;;-146.25;100.00;52165.44;2066475;28;20039;-71
2023/06/05 03:23:46;;;;;;;12.95;6.90;;;;;;;-146.25;100.00;52108.66;2071457;28;20058;-70
2023/06/05 03:24:49;;;;;;;11.32;6.55;;;;;;;-146.25;100.00;52124.91;2071550;28;20144;-70
2023/06/05 03:25:52;;;;;;;10.73;6.80;;;;;;;-146.25;100.00;52151.25;2079461;28;20041;-69
2023/06/05 03:26:57;;;;;;;12.90;6.97;;;;;;;-146.25;100.00;52118.81;2071317;28;20825;-68
2023/06/05 03:28:26;;;;;;;9.20;6.60;;;;;;;-146.25;100.00;52104.63;2071926;28;20168;-70
2023/06/05 03:29:34;;;;;;;9.60;6.13;;;;;;;-146.25;100.00;52137.06;2063306;28;20115;-69
2023/06/05 03:30:38;;;;;;;9.48;6.68;;;;;;;-146.25;100.00;52088.41;2066421;28;20099;-71
2023/06/05 03:31:42;;;;;;;8.98;5.88;;;;;;;-146.25;100.00;52145.16;2071547;28;20046;-71
2023/06/05 03:32:47;;;;;;;12.57;7.07;;;;;;;-146.25;100.00;52133.00;2071221;28;20165;-70
2023/06/05 03:33:49;;;;;;;11.45;7.03;;;;;;;-146.25;100.00;52167.47;2079959;28;20957;-71
2023/06/05 03:34:54;;;;;;;8.45;5.95;;;;;;;-146.25;100.00;52130.97;2071269;28;20073;-70
2023/06/05 03:35:56;;;;;;;11.05;6.45;;;;;;;-146.25;100.00;52120.84;2063245;28;20038;-70
2023/06/05 03:36:59;;;;;;;11.75;6.97;;;;;;;-146.25;100.00;52149.22;2063211;28;20102;-71
2023/06/05 03:38:03;;;;;;;8.68;6.43;;;;;;;-146.25;100.00;52151.25;2070996;28;20113;-72
2023/06/05 03:39:06;;;;;;;8.82;6.43;;;;;;;-146.25;100.00;52155.31;2071262;28;20062;-71
2023/06/05 03:40:12;;;;;;;10.93;6.78;;;;;;;-146.25;100.00;52155.31;2071428;28;20042;-71
2023/06/05 03:41:14;;;;;;;13.43;7.55;;;;;;;-146.25;100.00;52128.94;2071177;28;21093;-71
2023/06/05 03:42:16;;;;;;;13.00;7.43;;;;;;;-146.25;100.00;52137.06;2079710;28;21051;-71
2023/06/05 03:43:17;;;;;;;10.80;6.72;;;;;;;-146.25;100.00;52102.59;2071182;28;20747;-71
2023/06/05 03:44:20;;;;;;;8.00;5.85;;;;;;;-146.25;100.00;52124.91;2079021;28;22155;-71
2023/06/05 03:45:26;;;;;;;12.05;7.80;;;;;;;-146.25;100.00;52076.22;2078765;28;20040;-71
2023/06/05 03:46:29;;;;;;;10.63;6.68;;;;;;;-146.25;100.00;52112.72;2079425;28;20089;-71
2023/06/05 03:47:34;;;;;;;10.80;6.85;;;;;;;-146.25;100.00;52147.19;2070695;28;20183;-71
2023/06/05 03:48:36;;;;;;;11.40;7.68;;;;;;;-146.25;100.00;52149.22;2063631;28;20031;-71
2023/06/05 03:49:47;;;;;;;14.18;7.47;;;;;;;-146.25;100.00;52137.06;2070408;28;30469;-71
2023/06/05 03:50:52;;;;;;;12.48;7.22;;;;;;;-146.25;100.00;52141.13;2079512;28;20849;-71
2023/06/05 03:52:00;;;;;;;11.75;7.57;;;;;;;-146.25;100.00;52126.91;2079458;28;20788;-71
2023/06/05 03:53:03;;;;;;;10.30;7.30;;;;;;;-146.25;100.00;52106.66;2079177;28;20042;-70
2023/06/05 03:54:08;;;;;;;10.43;7.00;;;;;;;-146.25;100.00;52124.91;2071500;28;20077;-71
2023/06/05 03:55:10;;;;;;;12.98;6.85;;;;;;;-146.25;100.00;52092.44;2071570;28;20768;-71
2023/06/05 03:56:15;;;;;;;11.73;6.72;;;;;;;-146.25;100.00;52133.00;2079375;28;20049;-71
2023/06/05 03:57:17;;;;;;;9.68;6.55;;;;;;;-146.25;100.00;52114.75;2079269;28;20042;-70
2023/06/05 03:58:20;;;;;;;11.50;7.25;;;;;;;-146.25;100.00;52120.84;2079674;28;20054;-71
2023/06/05 03:59:27;;;;;;;10.32;7.13;;;;;;;-146.25;100.00;52157.34;2079373;28;20950;-71
2023/06/05 04:00:38;;;;;;;9.05;6.63;;;;;;;-146.25;100.00;52130.97;2071368;28;20185;-71
2023/06/05 04:01:41;;;;;;;10.93;6.90;;;;;;;-146.25;100.00;52137.06;2071761;28;20113;-71
2023/06/05 04:02:43;;;;;;;11.10;6.95;;;;;;;-146.25;100.00;52153.28;2079615;28;20045;-71
2023/06/05 04:03:49;;;;;;;12.18;6.82;;;;;;;-146.25;100.00;52173.56;2079452;28;20053;-71
2023/06/05 04:04:53;;;;;;;11.25;6.32;;;;;;;-146.25;100.00;52137.06;2079211;28;24512;-71
2023/06/05 04:05:57;;;;;;;10.05;6.57;;;;;;;-146.25;100.00;52145.16;2071680;28;21040;-72
2023/06/05 04:07:00;;;;;;;12.65;6.78;;;;;;;-146.25;100.00;52159.34;2079339;28;29896;-71
2023/06/05 04:08:02;;;;;;;10.27;6.15;;;;;;;-146.25;100.00;52181.66;2070751;28;20038;-70
2023/06/05 04:09:11;;;;;;;9.73;5.53;;;;;;;-146.25;100.00;52175.56;2071545;28;20097;-71
2023/06/05 04:10:14;;;;;;;;;;;;;;;-146.25;100.00;52149.22;2072825;28;20057;-71
2023/06/05 04:11:17;;;;;;;5.90;4.78;;;;;;;-146.25;100.00;52145.16;2079486;28;19917;-71
2023/06/05 04:12:20;;;;;;;8.50;4.88;;;;;;;-146.25;95.02;52187.75;2071319;28;25154;-71
2023/06/05 04:13:23;;;;;;;8.27;4.28;;;;;;;-146.25;92.75;52114.75;2071697;28;20141;-71
2023/06/05 04:14:25;;;;;;;7.15;4.47;;;;;;;-146.25;90.80;52157.34;2071021;28;21041;-71
2023/06/05 04:15:29;;;;;;;5.95;4.05;;;;;;;-146.25;91.00;52169.50;2071586;28;20046;-70
2023/06/05 04:16:30;;;;;;;5.20;3.95;;;;;;;-146.25;89.28;52155.31;2079112;28;20046;-72
2023/06/05 04:17:32;;;;;;;7.28;4.43;;;;;;;-146.25;83.42;52141.13;2079390;28;20050;-71
2023/06/05 04:18:34;;;;;;;5.60;3.88;;;;;;;-146.25;84.86;52141.13;2079153;28;20107;-71
2023/06/05 04:19:40;;;;;;;5.32;3.50;;;;;;;-146.25;84.06;52165.44;2079580;28;20042;-72
2023/06/05 04:20:42;;;;;;;6.57;3.92;;;;;;;-146.25;84.42;52175.56;2078854;28;20046;-69
2023/06/05 04:21:45;;;;;;;5.68;3.60;;;;;;;-146.25;80.35;52139.09;2071418;28;20168;-71
2023/06/05 04:22:47;;;;;;;3.80;3.30;;;;;;;-146.25;79.44;52161.38;2082710;28;20187;-71
2023/06/05 04:23:49;;;;;;;4.78;3.53;;;;;;;-146.25;78.23;52153.28;2080235;28;20037;-70
2023/06/05 04:24:53;;;;;;;5.45;3.88;;;;;;;-146.25;74.25;52159.34;2070596;28;20046;-70
2023/06/05 04:25:58;;;;;;;5.10;3.22;;;;;;;-146.25;75.61;52128.94;2079413;28;20131;-71
2023/06/05 04:27:00;;;;;;;4.93;3.25;;;;;;;-146.25;74.55;52143.13;2078689;28;32020;-70
2023/06/05 04:28:04;;;;;;;4.75;3.25;;;;;;;-146.25;74.54;52137.06;2079498;28;25973;-71
2023/06/05 04:29:13;;;;;;;6.43;3.85;;;;;;;-146.25;73.52;52147.19;2079775;28;22872;-71
2023/06/05 04:30:18;;;;;;;4.15;2.95;;;;;;;-146.25;71.83;52124.91;2079348;28;20053;-71
2023/06/05 04:31:20;;;;;;;5.57;3.67;;;;;;;-146.25;68.45;52169.50;2079135;28;20042;-71
2023/06/05 04:32:22;;;;;;;4.55;3.10;;;;;;;-146.25;68.17;52133.00;2078810;28;23590;-71
2023/06/05 04:33:26;;;;;;;3.63;3.10;;;;;;;-146.25;68.35;52130.97;2071263;28;20049;-71
2023/06/05 04:34:28;;;;;;;6.68;3.10;;;;;;;-146.25;67.61;52133.00;2071646;28;20050;-70
2023/06/05 04:35:32;;;;;;;5.72;3.60;;;;;;;-146.25;68.77;52143.13;2079015;28;23986;-71
2023/06/05 04:36:35;;;;;;;4.57;3.40;;;;;;;-146.25;64.69;52153.28;2087575;28;20045;-70
2023/06/05 04:37:38;;;;;;;5.03;3.50;;;;;;;-146.25;68.00;52137.06;2078944;28;20061;-70
2023/06/05 04:38:40;;;;;;;6.35;3.90;;;;;;;-146.25;65.58;52133.00;2079196;28;20038;-70
2023/06/05 04:39:43;;;;;;;4.53;3.28;;;;;;;-146.25;66.93;52137.06;2079955;28;20538;-70
2023/06/05 04:40:45;;;;;;;3.67;2.90;;;;;;;-146.25;65.88;52137.06;2079258;28;27991;-70
2023/06/05 04:41:48;;;;;;;4.82;3.28;;;;;;;-146.25;62.27;52147.19;2078800;28;20077;-71
2023/06/05 04:43:07;;;;;;;3.67;3.15;;;;;;;-146.25;62.27;52149.22;2080858;28;20089;-70
2023/06/05 04:44:16;;;;;;;4.40;3.40;;;;;;;-146.25;63.96;52128.94;2079283;28;20046;-70
2023/06/05 04:45:18;;;;;;;4.07;3.05;;;;;;;-146.25;64.11;52139.09;2078714;28;20673;-70
2023/06/05 04:46:24;;;;;;;5.15;3.17;;;;;;;-146.25;62.97;52149.22;2063140;28;20046;-70
2023/06/05 04:47:28;;;;;;;5.70;3.65;;;;;;;-146.25;61.50;52108.66;2071659;28;22316;-70
2023/06/05 04:48:30;;;;;;;5.45;3.63;;;;;;;-146.25;61.56;52147.19;2080012;28;20069;-70
2023/06/05 04:49:32;;;;;;;4.55;3.30;;;;;;;-146.25;59.80;52133.00;2078556;28;21682;-70
2023/06/05 04:50:35;;;;;;;4.72;3.10;;;;;;;-146.25;58.75;52177.59;2079622;28;20034;-71
2023/06/05 04:51:43;;;;;;;5.63;3.40;;;;;;;-146.25;59.62;52120.84;2078833;28;20091;-71